Alekseevka, Kazakhstan
Current Conditions -  °F | °C
As of 9:00 AM on Tuesday 27 Jan 2015 (Local Time) from UACC Reporting Station
Clear Clear  
Wind Chill: -43°   Ceiling: Unl
Heat Index: -26°   Visibility: 6mi
Dew Point: -33°   Wind: 7mph
Humidity: 69%   Direction: 210°SSW
Pressure: 30.71"   Gusts: NA
Location:  52.01°N, 70.94°E
Report Text: UACC 270300Z 21003MPS CAVOK M32/M36 Q1040 R22/8/0065 NOSIG RMKQFE748/0997
Loading
Personal Weather Stations






























Interactive Weather Map New forecast layout! Learn more

10-Day Weather Forecast

Advertisements
Track Severe Weather on mobile